Timeline UpdatesTrip UpdatesNews PostsPvt PostsTravel TipsAdmin PostsConv PostsFollowed PostsChat RequestsBlog PostsPNR Posts

Disclaimer
Search
 
 
Thu Jul 31, 2014 04:50:47 ISTHomeTrainsΣChainsAtlasPNRForumGalleryNewsFAQTripsMembersLoginFeedback
No Recent News for this Train
Other Trains in the News **new
Latest...
Cancelled from 17/6/14-24/6/14 #1132763***Popularly known as "BDM" amongst the local people
Thu Jun 12, 2014 (08:41PM)
⇐ Return Journey: Train# 53362

53361/BarkaKana Varanasi Passenger (UnReserved)

Sep 11 2013 (1:42PM)
Change Departure Station:
Change Arrival Station:
Post a Train Travel TipPost a Train Travel Tip **new
Post a Comment/Question/Picture/VideoPost a Comment/Question/Picture/Video
Pantry/Catering
✕ NO Pantry Car
✕ NO Catering
RSA - Rake Sharing
It has the RSA with 53359/53360 Barkakana-NSBC Gomoh Passenger.
Rake/Coach Composition
LOCO-SLR-GEN-GEN-GEN-GEN-GEN-GEN-SLR.
Loco
WAM-4 (MGS)
News    PNR    Forum    Time-Table    Availability    Fare Chart    Map    Arr/Dep History    Trips    Gallery    ΣChains    X/O    Timeline    
Travel Time: 10h 4m    46 halts    Distance: 354 km    Avg Speed: 35 km/hr
Type: Passenger
Zone: ECR/East Central
Departs @ 03:30 (Avg 32m late)
Platform# ???
SMTWTFS
Barkakana Junction/BRKA 
Arrives @ 13:34 (Avg 1h 13m late)
Platform# ???
SMTWTFS
Khurmabad Road/KVD 

46 halts. 51 intermediate Stations between Barkakana Junction and Khurmabad Road

Show ALL intermediate Stations  Show Old Time-Table

#CodeStation NameX/OArrivesAvgDepartsAvgHaltPFDay#KmSpeedElevZoneAddress
1BRKA»Barkakana Junction (4)»  -03:30+32--10.087341mECR0653-255225, Jharkhand
2BHKDBhurkunda (1)  03:37+1:0803:39+1:122m1110.249363mECRRamgarh, Jharkhand
3PTRUPatratu (3)  03:49+5203:51+542m--118.454373mECRDistt: Ramgarh, Jharkhand
4TKSTokisud  03:59+1:1804:01+1:182m--125.657373mECRKhakhra, Jharkhand
5HNDRHendegir  04:10+1:1804:12+1:182m--134.152397mECRBadam Rd, Jharkhand
6RAYRay (2)  04:25+1:2304:27+1:242m--145.591447mECRRanchi, Jharkhand
7KLREKhalari (3)  04:33+1:1504:35+1:152m--154.647459mECRKhelari, Jharkhand
8MGMEMcCluskieGanj (3)X  04:43+1:3104:45+1:342m--160.839476mECRPipra Toli, Jharkhand
9MMLNMahuamilanX  04:59+1:3805:01+1:382m--170.086486mECRNational Highway 75, Jharkhand
10TORITori (2)  05:10+1:3905:15+1:425m2182.872515mECRChandwa, Jharkhand
11CTQChetarX  05:23+1:4405:24+1:451m--192.462479mECRNational Highway 75, Jharkhand
12RCGTRichughutu  05:32+1:4605:33+1:471m--1100.763450mECRNational Highway 75, Jharkhand
13DEMUDemu  05:41+1:3005:42+1:301m--1109.041414mECRNational Highway 75, Jharkhand
14LTHRLatehar (2)  05:51+1:5005:53+1:532m--1115.233381mECRLatehar, Jharkhand
15BFQBendiX  06:04+1:5106:05+1:511m--1121.267370mECRNational Highway 75, Jharkhand
16KMNDKumendiX  06:12+1:5106:13+1:541m--1129.058353mECRMatnagj, Jharkhand
17HHGHehegara Halt  06:23+1:5606:24+1:561m--1138.664332mECRMatnagj, Jharkhand
18CPDRChhipadohar (2)  06:32+1:5806:33+2:031m--1147.222339mECRChipadohar bypass, Jharkhand
19BRWDBarwadih Junction (3)  06:55+1:5207:00+1:555m--1155.413295mECRDist. Latehar, Jharkhand
20MAZMangra  07:34+1:3207:35+1:321m--1163.038257mECRMangra, Jharkhand
21KCKIKechki  07:43+1:3107:44+1:321m--1168.152250mECRKechki, Jharkhand
22CNFChianki  07:53+1:3107:54+1:341m--1175.938237mECRNational Highway 75, Jharkhand
23DTODaltonGanj (3)  08:05+1:2008:10+1:205m11182.943234mECR230812, Jharkhand
24KFTKajri (2)  08:19+1:3408:20+1:351m--1189.397216mECRBairia, Jharkhand
25RHRRajhura (2)  08:27+1:3708:28+1:381m--1200.621205mECRDist. Palamu, Jharkhand
26TRZTolra (2)X  08:56+1:2608:58+1:262m--1210.411192mECRPalamu, Jharkhand
27GHDGarhwa Road Junction (3)  09:30+5209:40+5110m--1216.274188mECRPalamu, Jharkhand
28SQSSigsigi (2)  09:45+1:0909:47+1:142m--1222.345181mECRJharkhand, Jharkhand
29KRTAKarkata  09:53+1:1509:55+1:152m--1226.843174mECRPalamu, Jharkhand
30URDUntare Road (2)  10:03+1:1410:05+1:142m--1232.540170mECRPalamu, Jharkhand
31SZFSatbahini  10:13+1:1310:15+1:162m--1237.943161mECRJharkhand, Jharkhand
32MDJMuhammadGanj (2)  10:24+1:1610:26+1:162m--1244.351160mECRJharkhand, Jharkhand
33KVQKosiara  10:34+1:1710:36+1:172m--1251.135156mECRJharkhand, Jharkhand
34HDNHaidar Nagar (2)  10:45+1:1710:47+1:172m--1256.347145mECRPalamu, Jharkhand
35JPLJapla (2)  10:56+1:1510:58+1:172m--1263.341149mECRPalamu, Jharkhand
36KYFKajrat Nawadih  11:09+1:1311:11+1:132m--1270.961143mECRTiwari Vigha Rd, Jharkhand
37NBGNabinagar Road (2)  11:19+1:1311:21+1:132m--1279.0106140mECRBihar, Bihar
38BSYABarkisalalyaXO  11:30-11:32-2m--1294.913123mECRTilauthu, Bihar
39ANHAnkorah Akorha (3)  11:40+1:1311:42+1:132m--1296.661121mECRAurangabad, Bihar
40BCJBagahabishunpur (3)  11:50+1:1311:52+1:142m--1304.818115mECRBagahabishunpur, Bihar
41SEBSon Nagar Junction (4)  12:18+1:0312:20+1:112m--1312.729110mECRBarun, Bihar
42DOSDehri On Sone (6)  12:32+5312:37+545m--1318.467114mECRRohtas(06184-253154), Bihar
43PHEPahaleja Halt  12:41+1:2012:43+1:212m--1322.950112mECRPahaleja, Bihar
44KWDKarwandiaX  12:51+1:2012:53+1:202m--1329.630113mECRKarwandiya, Bihar
45SSMSasaram Junction (4)  13:06+4013:08+412m--1336.168111mECR06184-222051, Bihar
46KMGEKumahu  13:15+1:2113:17+1:212m--1344.042101mECRKamahu, Bihar
47SSGShiu Sagar Road  13:25+1:2113:27+1:212m--1349.64199mECRShiu Sagar Rd, Bihar
48KVD•Khurmabad Road•  13:34+1:1313:36+1:122m--1354.46993mECRKhurmabad, Bihar
49KTQKudra (2)  13:42+4913:44+532m--1361.36892mECRKudra, Bihar
50PSEPusauli  13:52+1:2113:54+1:212m--1370.35986mECRDistt: Rohtas, Bihar
51MTGEMuthani  14:02+1:2214:04+1:222m--1378.25483mECRNational Highway 2, Bihar
52BBUBhabua Road (4)  14:10+3414:12+372m--1383.76780mECR06187-222222, Bihar
53DGODurgauti  14:20+1:1214:22+1:122m--1392.65476mECRDistt Kaimur, Bihar
54DCXDhanaichha  14:28+1:4514:30+1:492m--1398.04675mECRNational Highway 2, Bihar
55KMSKaramnasa  14:38+1:4014:40+1:402m--1404.24978mECRNational Highway 2, Uttar Pradesh
56SYJSaidraja  14:50+1:4014:52+1:402m--1412.43680mECRSaiyedraja, Uttar Pradesh
57CDMRChandauli Majhwar  15:06+1:3615:08+1:432m--1420.83480mECRNational Highway 2, Uttar Pradesh
58GAQGanj Khawaja  15:23+1:4015:25+1:442m--1429.4879mECRChandauli Mjhwr, Uttar Pradesh
59MGSMughal Sarai Junction (8)X  16:30+3716:40+3710m51438.21683mECRMughalsarai 232101, Uttar Pradesh
60VYNVyasnagar  17:02+1:0017:03+1:011m--1443.92281mNRNational Highway 2, Uttar Pradesh
61KEIKashi (3)  17:17+4717:18+471m--1449.21085mNRVaranasi, Uttar Pradesh
62BSBVaranasi Junction (9)  17:50+47---1454.5-82mNRVaranasi 221002, Uttar Pradesh
Scroll to Top
Scroll to Bottom